메인 페이지
METAR-TAF:

METAR-TAF

공항 :

Guaratinguetá, 상파울루, 브라질

위도: 22-47S, 경도: 045-12W, 고도: 537m

현재 날씨관측

예보는 11 시간 13분 전, 22:00시(UTC)에 발표되었습니다.
북동4kt풍과 풍을 오가는
온도 22°C
습도 100%
기압 1016 hPa
시정: 4000m
고도 2500ft 상공 구름 보통
고도 3000ft 상공 구름 조금, 적란운.
고도 10000ft 상공 구름 많음
뇌우, 약한비, 박무

METAR: SBGW 312200Z 04004KT 010V090 4000 -TSRA BR SCT025 FEW030CB BKN100 22/22 Q1016

시각: 07:13 (09:13 UTC)

예보

예보는 6 시간 13분 전, 03:00시(UTC)에 발표되었습니다.
예보 대상 시간: 01일 06시부터 01일 18시까지 (UTC)
북동5kt
시정 10km 이상
고도 1800ft 상공 구름 보통
확률 30% :
일시적
01일 08시부터 01일 11시까지 (UTC)
시정: 3500m
고도 800ft 상공 구름 많음
박무
전환 중
01일 14시부터 01일 16시까지 (UTC)
고도 3000ft 상공 구름 많음

TAF: SBGW 010300Z 0106/0118 05005KT 9999 SCT018 TN20/0107Z TX27/0117Z PROB30 TEMPO 0108/0111 3500 BR BKN008 BECMG 0114/0116 BKN030 RMK PFP

4,000개 이상의 공항 관측 자료 및 예보 (METAR 및 TAF 보고).

지도상에서 검색 가능한 기상관측소가 노란 점과 빨간 점으로 표시되어 있습니다.

기상관측소 명을 보려면 표시 위로 마우스를 이동하세요.

날씨 관측과 예보를 보려면 클릭하세요.

지도 변경 : 확대하려면 엑스 표시가 있는 녹색 버튼, 축소하려면 빼기 표시가 있는 녹색 버튼, 다음 페이지의 지도를 보려면 녹색 화살표를 클릭하세요.


METAR-TAF: